sensor_id;sensor_type;location;lat;lon;timestamp;pressure;altitude;pressure_sealevel;temperature;humidity
50380;BME280;37474;59.468;18.040;2023-04-08T00:00:08;102983.84;;;1.56;91.09
50380;BME280;37474;59.468;18.040;2023-04-08T00:02:40;102978.97;;;1.29;91.68
50380;BME280;37474;59.468;18.040;2023-04-08T00:05:08;102985.78;;;1.28;93.56
50380;BME280;37474;59.468;18.040;2023-04-08T00:07:37;102989.09;;;1.26;92.80
50380;BME280;37474;59.468;18.040;2023-04-08T00:10:09;102981.47;;;1.65;91.43
50380;BME280;37474;59.468;18.040;2023-04-08T00:12:36;102982.91;;;1.54;90.16
50380;BME280;37474;59.468;18.040;2023-04-08T00:15:05;102974.50;;;1.58;89.94
50380;BME280;37474;59.468;18.040;2023-04-08T00:17:37;102984.75;;;1.59;89.90
50380;BME280;37474;59.468;18.040;2023-04-08T00:20:05;102984.28;;;1.38;91.25
50380;BME280;37474;59.468;18.040;2023-04-08T00:22:34;102980.34;;;1.52;89.49
50380;BME280;37474;59.468;18.040;2023-04-08T00:25:06;102993.16;;;1.54;90.06
50380;BME280;37474;59.468;18.040;2023-04-08T00:27:35;102985.31;;;1.46;90.50
50380;BME280;37474;59.468;18.040;2023-04-08T00:30:05;102983.88;;;1.57;90.95
50380;BME280;37474;59.468;18.040;2023-04-08T00:32:38;102971.00;;;1.54;90.26
50380;BME280;37474;59.468;18.040;2023-04-08T00:35:06;102978.25;;;1.35;90.54
50380;BME280;37474;59.468;18.040;2023-04-08T00:37:34;102982.16;;;1.20;93.58
50380;BME280;37474;59.468;18.040;2023-04-08T00:40:07;102979.81;;;1.28;91.92
50380;BME280;37474;59.468;18.040;2023-04-08T00:42:35;102937.47;;;1.03;92.00
50380;BME280;37474;59.468;18.040;2023-04-08T00:45:03;102976.78;;;1.46;90.29
50380;BME280;37474;59.468;18.040;2023-04-08T00:47:36;102982.91;;;1.54;90.52
50380;BME280;37474;59.468;18.040;2023-04-08T00:50:07;102981.34;;;1.59;90.26
50380;BME280;37474;59.468;18.040;2023-04-08T00:52:40;102980.00;;;1.37;89.69
50380;BME280;37474;59.468;18.040;2023-04-08T00:55:08;102984.84;;;1.25;90.98
50380;BME280;37474;59.468;18.040;2023-04-08T00:57:35;102991.63;;;1.24;91.06
50380;BME280;37474;59.468;18.040;2023-04-08T01:00:08;102985.59;;;1.58;90.38
50380;BME280;37474;59.468;18.040;2023-04-08T01:02:44;102981.84;;;1.44;89.84
50380;BME280;37474;59.468;18.040;2023-04-08T01:05:21;102996.06;;;1.31;91.04
50380;BME280;37474;59.468;18.040;2023-04-08T01:07:50;102991.22;;;1.44;90.42
50380;BME280;37474;59.468;18.040;2023-04-08T01:10:22;102993.47;;;1.30;91.86
50380;BME280;37474;59.468;18.040;2023-04-08T01:12:55;102988.91;;;1.17;92.95
50380;BME280;37474;59.468;18.040;2023-04-08T01:15:27;102987.56;;;1.32;92.18
50380;BME280;37474;59.468;18.040;2023-04-08T01:17:58;102987.22;;;1.17;93.67
50380;BME280;37474;59.468;18.040;2023-04-08T01:20:31;102986.66;;;1.30;93.14
50380;BME280;37474;59.468;18.040;2023-04-08T01:23:01;102991.81;;;1.32;92.29
50380;BME280;37474;59.468;18.040;2023-04-08T01:25:35;102988.38;;;1.31;93.42
50380;BME280;37474;59.468;18.040;2023-04-08T01:28:06;102989.00;;;1.21;94.34
50380;BME280;37474;59.468;18.040;2023-04-08T01:30:45;102991.06;;;1.36;93.64
50380;BME280;37474;59.468;18.040;2023-04-08T01:33:15;102986.44;;;1.59;92.73
50380;BME280;37474;59.468;18.040;2023-04-08T01:35:48;102984.38;;;1.43;91.77
50380;BME280;37474;59.468;18.040;2023-04-08T01:38:19;102989.13;;;1.27;92.66
50380;BME280;37474;59.468;18.040;2023-04-08T01:40:52;102993.22;;;1.19;94.26
50380;BME280;37474;59.468;18.040;2023-04-08T01:43:23;102944.06;;;1.29;92.97
50380;BME280;37474;59.468;18.040;2023-04-08T01:45:57;102988.94;;;1.56;91.74
50380;BME280;37474;59.468;18.040;2023-04-08T01:48:28;102993.69;;;1.39;92.63
50380;BME280;37474;59.468;18.040;2023-04-08T01:50:57;102990.25;;;1.39;92.29
50380;BME280;37474;59.468;18.040;2023-04-08T01:53:30;102998.22;;;1.15;93.51
50380;BME280;37474;59.468;18.040;2023-04-08T01:56:03;102997.28;;;1.49;90.32
50380;BME280;37474;59.468;18.040;2023-04-08T01:58:39;102995.91;;;1.25;92.54
50380;BME280;37474;59.468;18.040;2023-04-08T02:01:13;103000.06;;;1.22;92.99
50380;BME280;37474;59.468;18.040;2023-04-08T02:03:46;103008.00;;;1.32;90.23
50380;BME280;37474;59.468;18.040;2023-04-08T02:06:16;103006.06;;;1.22;91.54
50380;BME280;37474;59.468;18.040;2023-04-08T02:08:44;103009.03;;;1.39;91.12
50380;BME280;37474;59.468;18.040;2023-04-08T02:11:17;102999.06;;;1.51;89.09
50380;BME280;37474;59.468;18.040;2023-04-08T02:13:46;102998.75;;;1.38;91.56
50380;BME280;37474;59.468;18.040;2023-04-08T02:16:17;102999.78;;;1.46;90.01
50380;BME280;37474;59.468;18.040;2023-04-08T02:18:55;103002.38;;;1.47;90.70
50380;BME280;37474;59.468;18.040;2023-04-08T02:21:28;102997.34;;;1.50;90.39
50380;BME280;37474;59.468;18.040;2023-04-08T02:24:04;102999.59;;;1.37;90.91
50380;BME280;37474;59.468;18.040;2023-04-08T02:26:36;102973.06;;;1.31;89.21
50380;BME280;37474;59.468;18.040;2023-04-08T02:29:11;102995.66;;;1.51;90.15
50380;BME280;37474;59.468;18.040;2023-04-08T02:31:42;102999.78;;;1.46;89.61
50380;BME280;37474;59.468;18.040;2023-04-08T02:34:13;103003.69;;;1.30;90.06
50380;BME280;37474;59.468;18.040;2023-04-08T02:36:45;103003.75;;;1.33;90.86
50380;BME280;37474;59.468;18.040;2023-04-08T02:39:15;102999.69;;;1.41;89.32
50380;BME280;37474;59.468;18.040;2023-04-08T02:41:45;103012.59;;;1.46;90.25
50380;BME280;37474;59.468;18.040;2023-04-08T02:44:14;103010.91;;;1.48;89.64
50380;BME280;37474;59.468;18.040;2023-04-08T02:46:44;102980.84;;;1.38;88.37
50380;BME280;37474;59.468;18.040;2023-04-08T02:49:11;103010.91;;;1.48;89.40
50380;BME280;37474;59.468;18.040;2023-04-08T02:51:39;103012.97;;;1.26;90.10
50380;BME280;37474;59.468;18.040;2023-04-08T02:54:09;103012.00;;;1.59;87.59
50380;BME280;37474;59.468;18.040;2023-04-08T02:56:39;103013.31;;;1.40;89.03
50380;BME280;37474;59.468;18.040;2023-04-08T02:59:06;103011.06;;;1.55;88.24
50380;BME280;37474;59.468;18.040;2023-04-08T03:01:37;103012.75;;;1.55;88.34
50380;BME280;37474;59.468;18.040;2023-04-08T03:04:08;103013.50;;;1.49;87.72
50380;BME280;37474;59.468;18.040;2023-04-08T03:06:35;103013.63;;;1.55;89.20
50380;BME280;37474;59.468;18.040;2023-04-08T03:09:12;103020.97;;;1.40;88.79
50380;BME280;37474;59.468;18.040;2023-04-08T03:11:39;103014.31;;;1.47;87.70
50380;BME280;37474;59.468;18.040;2023-04-08T03:14:07;103015.91;;;1.43;88.60
50380;BME280;37474;59.468;18.040;2023-04-08T03:16:38;103017.44;;;1.35;88.79
50380;BME280;37474;59.468;18.040;2023-04-08T03:19:06;102991.41;;;1.15;88.48
50380;BME280;37474;59.468;18.040;2023-04-08T03:21:34;103006.63;;;1.11;88.18
50380;BME280;37474;59.468;18.040;2023-04-08T03:24:05;103020.75;;;1.31;88.13
50380;BME280;37474;59.468;18.040;2023-04-08T03:26:33;103022.06;;;1.15;88.63
50380;BME280;37474;59.468;18.040;2023-04-08T03:29:01;103024.47;;;1.09;89.29
50380;BME280;37474;59.468;18.040;2023-04-08T03:31:29;103019.38;;;1.09;88.58
50380;BME280;37474;59.468;18.040;2023-04-08T03:33:58;103018.34;;;1.01;89.92
50380;BME280;37474;59.468;18.040;2023-04-08T03:36:26;102983.94;;;0.88;89.13
50380;BME280;37474;59.468;18.040;2023-04-08T03:38:59;103029.34;;;1.00;89.73
50380;BME280;37474;59.468;18.040;2023-04-08T03:41:29;103027.94;;;1.11;89.50
50380;BME280;37474;59.468;18.040;2023-04-08T03:43:59;103016.28;;;0.88;90.18
50380;BME280;37474;59.468;18.040;2023-04-08T03:46:28;103022.75;;;0.73;91.07
50380;BME280;37474;59.468;18.040;2023-04-08T03:48:56;102976.13;;;0.49;90.47
50380;BME280;37474;59.468;18.040;2023-04-08T03:51:27;103024.75;;;0.53;91.68
50380;BME280;37474;59.468;18.040;2023-04-08T03:53:57;103030.88;;;0.60;91.32
50380;BME280;37474;59.468;18.040;2023-04-08T03:56:24;103027.56;;;0.63;92.53
50380;BME280;37474;59.468;18.040;2023-04-08T03:58:54;103027.19;;;0.49;92.66
50380;BME280;37474;59.468;18.040;2023-04-08T04:01:24;103030.56;;;0.48;92.85
50380;BME280;37474;59.468;18.040;2023-04-08T04:03:52;103021.03;;;0.41;92.15
50380;BME280;37474;59.468;18.040;2023-04-08T04:06:22;103026.66;;;0.29;92.91
50380;BME280;37474;59.468;18.040;2023-04-08T04:08:54;103031.59;;;0.23;92.52
50380;BME280;37474;59.468;18.040;2023-04-08T04:11:22;103034.78;;;-0.13;95.24
50380;BME280;37474;59.468;18.040;2023-04-08T04:13:52;103039.38;;;-0.30;97.06
50380;BME280;37474;59.468;18.040;2023-04-08T04:16:22;103038.75;;;0.06;95.65
50380;BME280;37474;59.468;18.040;2023-04-08T04:18:51;103045.84;;;0.16;94.87
50380;BME280;37474;59.468;18.040;2023-04-08T04:21:22;103047.59;;;0.17;93.98
50380;BME280;37474;59.468;18.040;2023-04-08T04:23:52;103044.44;;;-0.03;95.63
50380;BME280;37474;59.468;18.040;2023-04-08T04:26:22;103044.31;;;-0.07;96.16
50380;BME280;37474;59.468;18.040;2023-04-08T04:28:52;103035.50;;;-0.17;95.36
50380;BME280;37474;59.468;18.040;2023-04-08T04:31:22;103046.78;;;-0.10;96.76
50380;BME280;37474;59.468;18.040;2023-04-08T04:33:55;102982.00;;;-0.45;96.23
50380;BME280;37474;59.468;18.040;2023-04-08T04:36:25;103044.78;;;-0.20;96.83
50380;BME280;37474;59.468;18.040;2023-04-08T04:38:53;103049.94;;;-0.17;96.28
50380;BME280;37474;59.468;18.040;2023-04-08T04:41:24;103044.59;;;0.02;96.27
50380;BME280;37474;59.468;18.040;2023-04-08T04:43:54;103043.69;;;0.00;97.09
50380;BME280;37474;59.468;18.040;2023-04-08T04:46:22;103040.47;;;0.06;95.11
50380;BME280;37474;59.468;18.040;2023-04-08T04:48:50;103040.72;;;0.16;94.50
50380;BME280;37474;59.468;18.040;2023-04-08T04:51:19;103044.97;;;0.16;94.24
50380;BME280;37474;59.468;18.040;2023-04-08T04:53:47;103039.88;;;0.46;94.31
50380;BME280;37474;59.468;18.040;2023-04-08T04:56:18;103041.03;;;1.25;90.08
50380;BME280;37474;59.468;18.040;2023-04-08T04:58:48;103045.25;;;1.59;85.20
50380;BME280;37474;59.468;18.040;2023-04-08T05:01:16;103049.81;;;1.35;86.45
50380;BME280;37474;59.468;18.040;2023-04-08T05:03:50;103046.34;;;0.98;87.55
50380;BME280;37474;59.468;18.040;2023-04-08T05:06:18;103047.09;;;1.28;87.82
50380;BME280;37474;59.468;18.040;2023-04-08T05:08:46;103058.75;;;1.53;85.21
50380;BME280;37474;59.468;18.040;2023-04-08T05:11:16;103054.59;;;1.57;83.88
50380;BME280;37474;59.468;18.040;2023-04-08T05:13:47;103054.78;;;1.66;84.54
50380;BME280;37474;59.468;18.040;2023-04-08T05:16:17;103059.41;;;1.45;85.80
50380;BME280;37474;59.468;18.040;2023-04-08T05:18:45;103072.41;;;0.85;87.86
50380;BME280;37474;59.468;18.040;2023-04-08T05:21:13;103064.94;;;0.92;88.05
50380;BME280;37474;59.468;18.040;2023-04-08T05:23:41;103058.88;;;0.89;88.53
50380;BME280;37474;59.468;18.040;2023-04-08T05:26:09;103066.63;;;0.92;88.13
50380;BME280;37474;59.468;18.040;2023-04-08T05:28:37;103067.03;;;0.75;89.27
50380;BME280;37474;59.468;18.040;2023-04-08T05:31:06;103066.75;;;0.65;89.92
50380;BME280;37474;59.468;18.040;2023-04-08T05:33:34;103073.38;;;0.58;89.57
50380;BME280;37474;59.468;18.040;2023-04-08T05:36:04;103071.50;;;0.51;89.60
50380;BME280;37474;59.468;18.040;2023-04-08T05:38:34;103075.41;;;0.70;89.72
50380;BME280;37474;59.468;18.040;2023-04-08T05:41:02;103076.34;;;0.73;89.29
50380;BME280;37474;59.468;18.040;2023-04-08T05:43:32;103041.75;;;0.53;88.88
50380;BME280;37474;59.468;18.040;2023-04-08T05:46:07;103076.88;;;0.93;87.22
50380;BME280;37474;59.468;18.040;2023-04-08T05:48:35;103075.16;;;0.94;88.83
50380;BME280;37474;59.468;18.040;2023-04-08T05:51:03;103051.84;;;0.80;89.15
50380;BME280;37474;59.468;18.040;2023-04-08T05:53:34;103077.38;;;1.13;89.16
50380;BME280;37474;59.468;18.040;2023-04-08T05:56:04;103071.75;;;0.93;87.89
50380;BME280;37474;59.468;18.040;2023-04-08T05:58:32;103042.22;;;1.03;86.97
50380;BME280;37474;59.468;18.040;2023-04-08T06:01:02;103070.00;;;1.24;85.91
50380;BME280;37474;59.468;18.040;2023-04-08T06:03:37;103064.66;;;1.16;86.21
50380;BME280;37474;59.468;18.040;2023-04-08T06:06:08;103069.19;;;1.26;85.19
50380;BME280;37474;59.468;18.040;2023-04-08T06:08:40;103073.63;;;1.34;84.89
50380;BME280;37474;59.468;18.040;2023-04-08T06:11:08;103081.22;;;1.30;86.72
50380;BME280;37474;59.468;18.040;2023-04-08T06:13:37;103076.63;;;1.52;84.95
50380;BME280;37474;59.468;18.040;2023-04-08T06:16:15;103083.59;;;1.95;83.12
50380;BME280;37474;59.468;18.040;2023-04-08T06:18:51;103093.56;;;2.22;82.25
50380;BME280;37474;59.468;18.040;2023-04-08T06:21:21;103078.47;;;2.36;80.79
50380;BME280;37474;59.468;18.040;2023-04-08T06:23:49;103081.88;;;2.36;79.73
50380;BME280;37474;59.468;18.040;2023-04-08T06:26:19;103052.78;;;2.33;79.19
50380;BME280;37474;59.468;18.040;2023-04-08T06:28:49;103075.88;;;2.78;79.55
50380;BME280;37474;59.468;18.040;2023-04-08T06:31:17;103082.06;;;2.91;75.83
50380;BME280;37474;59.468;18.040;2023-04-08T06:33:51;103077.81;;;2.91;76.33
50380;BME280;37474;59.468;18.040;2023-04-08T06:36:21;103082.53;;;3.17;76.84
50380;BME280;37474;59.468;18.040;2023-04-08T06:38:49;103077.84;;;3.44;74.07
50380;BME280;37474;59.468;18.040;2023-04-08T06:41:19;103043.28;;;3.21;73.03
50380;BME280;37474;59.468;18.040;2023-04-08T06:43:49;103081.38;;;3.51;71.05
50380;BME280;37474;59.468;18.040;2023-04-08T06:46:16;103080.63;;;3.60;71.50
50380;BME280;37474;59.468;18.040;2023-04-08T06:48:46;103084.81;;;3.55;71.64
50380;BME280;37474;59.468;18.040;2023-04-08T06:51:16;103088.50;;;3.70;71.09
50380;BME280;37474;59.468;18.040;2023-04-08T06:53:44;103089.09;;;3.54;70.65
50380;BME280;37474;59.468;18.040;2023-04-08T06:56:12;103090.28;;;3.76;69.41
50380;BME280;37474;59.468;18.040;2023-04-08T06:58:41;103087.75;;;3.78;72.01
50380;BME280;37474;59.468;18.040;2023-04-08T07:01:09;103093.78;;;3.81;71.71
50380;BME280;37474;59.468;18.040;2023-04-08T07:03:39;103088.25;;;4.14;72.11
50380;BME280;37474;59.468;18.040;2023-04-08T07:06:09;103092.81;;;4.38;66.05
50380;BME280;37474;59.468;18.040;2023-04-08T07:08:38;103092.16;;;4.55;68.14
50380;BME280;37474;59.468;18.040;2023-04-08T07:11:09;103094.44;;;4.30;68.00
50380;BME280;37474;59.468;18.040;2023-04-08T07:13:37;103097.28;;;4.55;65.78
50380;BME280;37474;59.468;18.040;2023-04-08T07:16:05;103095.28;;;4.29;69.79
50380;BME280;37474;59.468;18.040;2023-04-08T07:18:33;103098.19;;;4.58;66.65
50380;BME280;37474;59.468;18.040;2023-04-08T07:21:02;103068.13;;;4.49;67.24
50380;BME280;37474;59.468;18.040;2023-04-08T07:23:30;103090.47;;;4.57;68.30
50380;BME280;37474;59.468;18.040;2023-04-08T07:26:02;103097.53;;;4.76;67.01
50380;BME280;37474;59.468;18.040;2023-04-08T07:28:32;103106.22;;;4.87;68.03
50380;BME280;37474;59.468;18.040;2023-04-08T07:31:12;103069.97;;;4.61;66.01
50380;BME280;37474;59.468;18.040;2023-04-08T07:33:42;103105.22;;;4.73;65.71
50380;BME280;37474;59.468;18.040;2023-04-08T07:36:11;103109.56;;;4.79;67.28
50380;BME280;37474;59.468;18.040;2023-04-08T07:38:42;103104.59;;;4.97;65.38
50380;BME280;37474;59.468;18.040;2023-04-08T07:41:12;103108.13;;;5.08;66.99
50380;BME280;37474;59.468;18.040;2023-04-08T07:43:41;103108.94;;;5.04;63.11
50380;BME280;37474;59.468;18.040;2023-04-08T07:46:09;103109.69;;;4.92;64.96
50380;BME280;37474;59.468;18.040;2023-04-08T07:48:39;103106.31;;;4.99;67.11
50380;BME280;37474;59.468;18.040;2023-04-08T07:51:08;103112.38;;;5.04;65.59
50380;BME280;37474;59.468;18.040;2023-04-08T07:53:38;103100.63;;;5.28;64.09
50380;BME280;37474;59.468;18.040;2023-04-08T07:56:12;103110.16;;;5.41;64.67
50380;BME280;37474;59.468;18.040;2023-04-08T07:58:41;103109.28;;;5.42;63.71
50380;BME280;37474;59.468;18.040;2023-04-08T08:01:16;103110.44;;;5.81;63.67
50380;BME280;37474;59.468;18.040;2023-04-08T08:03:45;103106.97;;;5.73;63.46
50380;BME280;37474;59.468;18.040;2023-04-08T08:06:14;103115.50;;;5.72;61.99
50380;BME280;37474;59.468;18.040;2023-04-08T08:08:42;103107.06;;;5.90;60.96
50380;BME280;37474;59.468;18.040;2023-04-08T08:11:10;103116.47;;;5.83;60.79
50380;BME280;37474;59.468;18.040;2023-04-08T08:13:39;103111.41;;;5.98;59.02
50380;BME280;37474;59.468;18.040;2023-04-08T08:16:07;103110.56;;;5.95;58.31
50380;BME280;37474;59.468;18.040;2023-04-08T08:18:39;103111.53;;;6.20;57.63
50380;BME280;37474;59.468;18.040;2023-04-08T08:21:07;103108.16;;;6.30;59.06
50380;BME280;37474;59.468;18.040;2023-04-08T08:23:36;103075.53;;;6.35;57.33
50380;BME280;37474;59.468;18.040;2023-04-08T08:26:08;103107.41;;;6.55;60.44
50380;BME280;37474;59.468;18.040;2023-04-08T08:28:36;103106.56;;;6.72;54.18
50380;BME280;37474;59.468;18.040;2023-04-08T08:31:06;103104.00;;;6.73;53.01
50380;BME280;37474;59.468;18.040;2023-04-08T08:33:34;103112.63;;;6.81;53.52
50380;BME280;37474;59.468;18.040;2023-04-08T08:36:02;103106.66;;;7.02;52.34
50380;BME280;37474;59.468;18.040;2023-04-08T08:38:31;103114.38;;;6.95;50.73
50380;BME280;37474;59.468;18.040;2023-04-08T08:40:59;103108.25;;;6.56;52.54
50380;BME280;37474;59.468;18.040;2023-04-08T08:43:29;103105.75;;;6.80;51.05
50380;BME280;37474;59.468;18.040;2023-04-08T08:45:58;103104.09;;;7.11;53.38
50380;BME280;37474;59.468;18.040;2023-04-08T08:48:30;103111.78;;;7.10;49.62
50380;BME280;37474;59.468;18.040;2023-04-08T08:50:59;103111.84;;;7.34;50.99
50380;BME280;37474;59.468;18.040;2023-04-08T08:53:29;103073.97;;;7.15;49.77
50380;BME280;37474;59.468;18.040;2023-04-08T08:56:01;103110.94;;;7.60;51.21
50380;BME280;37474;59.468;18.040;2023-04-08T08:58:32;103108.34;;;7.77;51.40
50380;BME280;37474;59.468;18.040;2023-04-08T09:01:00;103103.19;;;7.75;49.17
50380;BME280;37474;59.468;18.040;2023-04-08T09:03:29;103085.97;;;7.79;48.72
50380;BME280;37474;59.468;18.040;2023-04-08T09:05:59;103110.09;;;7.67;47.30
50380;BME280;37474;59.468;18.040;2023-04-08T09:08:29;103099.78;;;7.62;47.00
50380;BME280;37474;59.468;18.040;2023-04-08T09:11:11;103061.91;;;7.63;48.37
50380;BME280;37474;59.468;18.040;2023-04-08T09:13:39;103089.34;;;7.98;48.35
50380;BME280;37474;59.468;18.040;2023-04-08T09:16:08;103085.00;;;8.13;47.69
50380;BME280;37474;59.468;18.040;2023-04-08T09:18:39;103092.84;;;7.77;47.82
50380;BME280;37474;59.468;18.040;2023-04-08T09:21:13;103096.22;;;7.99;46.42
50380;BME280;37474;59.468;18.040;2023-04-08T09:23:42;103089.34;;;7.98;45.94
50380;BME280;37474;59.468;18.040;2023-04-08T09:26:11;103089.31;;;8.11;48.35
50380;BME280;37474;59.468;18.040;2023-04-08T09:28:56;103095.41;;;7.95;44.75
50380;BME280;37474;59.468;18.040;2023-04-08T09:31:28;103089.28;;;8.22;45.85
50380;BME280;37474;59.468;18.040;2023-04-08T09:34:00;103087.50;;;8.38;45.73
50380;BME280;37474;59.468;18.040;2023-04-08T09:36:35;103084.03;;;8.42;44.37
50380;BME280;37474;59.468;18.040;2023-04-08T09:39:03;103081.38;;;8.57;44.13
50380;BME280;37474;59.468;18.040;2023-04-08T09:41:33;103087.41;;;8.59;44.18
50380;BME280;37474;59.468;18.040;2023-04-08T09:44:03;103087.41;;;8.62;43.76
50380;BME280;37474;59.468;18.040;2023-04-08T09:46:38;103090.69;;;8.87;44.94
50380;BME280;37474;59.468;18.040;2023-04-08T09:49:11;103088.69;;;9.28;45.60
50380;BME280;37474;59.468;18.040;2023-04-08T09:51:49;103084.59;;;8.93;45.55
50380;BME280;37474;59.468;18.040;2023-04-08T09:54:20;103052.81;;;8.76;46.09
50380;BME280;37474;59.468;18.040;2023-04-08T09:56:56;103084.69;;;8.81;46.18
50380;BME280;37474;59.468;18.040;2023-04-08T09:59:29;103082.28;;;8.52;45.08
50380;BME280;37474;59.468;18.040;2023-04-08T10:02:07;103085.63;;;8.72;47.63
50380;BME280;37474;59.468;18.040;2023-04-08T10:04:38;103081.13;;;9.00;46.74
50380;BME280;37474;59.468;18.040;2023-04-08T10:07:13;103070.84;;;8.91;46.26
50380;BME280;37474;59.468;18.040;2023-04-08T10:09:41;103084.63;;;8.94;45.45
50380;BME280;37474;59.468;18.040;2023-04-08T10:12:09;103078.59;;;8.88;46.77
50380;BME280;37474;59.468;18.040;2023-04-08T10:15:20;103081.38;;;8.62;43.92
50380;BME280;37474;59.468;18.040;2023-04-08T10:17:48;103076.28;;;8.46;45.70
50380;BME280;37474;59.468;18.040;2023-04-08T10:20:44;103071.81;;;8.75;45.26
50380;BME280;37474;59.468;18.040;2023-04-08T10:23:14;103070.72;;;9.06;44.55
50380;BME280;37474;59.468;18.040;2023-04-08T10:25:46;103074.66;;;9.48;42.92
50380;BME280;37474;59.468;18.040;2023-04-08T10:28:23;103070.25;;;9.61;44.03
50380;BME280;37474;59.468;18.040;2023-04-08T10:30:54;103070.09;;;9.73;41.01
50380;BME280;37474;59.468;18.040;2023-04-08T10:33:30;103070.50;;;9.31;43.12
50380;BME280;37474;59.468;18.040;2023-04-08T10:36:08;103068.63;;;9.49;41.83
50380;BME280;37474;59.468;18.040;2023-04-08T10:38:37;103066.13;;;9.39;42.99
50380;BME280;37474;59.468;18.040;2023-04-08T10:41:10;103072.72;;;9.70;43.06
50380;BME280;37474;59.468;18.040;2023-04-08T10:43:39;103066.31;;;10.02;41.68
50380;BME280;37474;59.468;18.040;2023-04-08T10:46:09;103024.09;;;9.92;39.52
50380;BME280;37474;59.468;18.040;2023-04-08T10:48:37;103055.78;;;10.17;38.99
50380;BME280;37474;59.468;18.040;2023-04-08T10:51:06;103051.69;;;9.99;38.68
50380;BME280;37474;59.468;18.040;2023-04-08T10:53:37;103059.50;;;9.95;38.86
50380;BME280;37474;59.468;18.040;2023-04-08T10:56:07;103060.16;;;10.12;39.25
50380;BME280;37474;59.468;18.040;2023-04-08T10:58:36;103058.84;;;10.48;39.10
50380;BME280;37474;59.468;18.040;2023-04-08T11:01:18;103050.34;;;10.37;38.07
50380;BME280;37474;59.468;18.040;2023-04-08T11:03:47;103049.72;;;10.15;36.04
50380;BME280;37474;59.468;18.040;2023-04-08T11:06:17;103053.34;;;10.05;39.22
50380;BME280;37474;59.468;18.040;2023-04-08T11:08:45;103048.00;;;10.16;37.71
50380;BME280;37474;59.468;18.040;2023-04-08T11:11:13;103047.09;;;10.20;37.68
50380;BME280;37474;59.468;18.040;2023-04-08T11:13:43;103049.53;;;10.35;38.28
50380;BME280;37474;59.468;18.040;2023-04-08T11:16:19;103055.13;;;9.98;38.96
50380;BME280;37474;59.468;18.040;2023-04-08T11:18:49;103049.41;;;10.44;36.99
50380;BME280;37474;59.468;18.040;2023-04-08T11:21:19;103054.41;;;10.56;38.08
50380;BME280;37474;59.468;18.040;2023-04-08T11:23:48;103032.09;;;10.43;35.20
50380;BME280;37474;59.468;18.040;2023-04-08T11:26:17;103013.63;;;10.65;34.67
50380;BME280;37474;59.468;18.040;2023-04-08T11:28:45;103044.56;;;10.78;35.34
50380;BME280;37474;59.468;18.040;2023-04-08T11:31:17;103042.91;;;10.74;38.76
50380;BME280;37474;59.468;18.040;2023-04-08T11:33:52;103027.81;;;10.42;37.73
50380;BME280;37474;59.468;18.040;2023-04-08T11:36:21;103053.47;;;11.18;38.66
50380;BME280;37474;59.468;18.040;2023-04-08T11:38:49;103035.59;;;10.98;34.70
50380;BME280;37474;59.468;18.040;2023-04-08T11:41:18;103042.53;;;10.97;35.05
50380;BME280;37474;59.468;18.040;2023-04-08T11:43:53;103048.59;;;10.99;35.42
50380;BME280;37474;59.468;18.040;2023-04-08T11:46:21;103045.22;;;10.32;33.15
50380;BME280;37474;59.468;18.040;2023-04-08T11:49:07;103041.41;;;10.58;32.61
50380;BME280;37474;59.468;18.040;2023-04-08T11:51:53;103015.06;;;10.25;33.94
50380;BME280;37474;59.468;18.040;2023-04-08T11:54:27;103044.38;;;10.32;33.77
50380;BME280;37474;59.468;18.040;2023-04-08T11:56:58;102999.63;;;10.16;34.11
50380;BME280;37474;59.468;18.040;2023-04-08T11:59:30;103019.16;;;11.00;34.34
50380;BME280;37474;59.468;18.040;2023-04-08T12:01:58;103029.91;;;10.77;33.29
50380;BME280;37474;59.468;18.040;2023-04-08T12:04:29;103029.16;;;10.69;34.49
50380;BME280;37474;59.468;18.040;2023-04-08T12:07:00;103023.09;;;10.69;31.06
50380;BME280;37474;59.468;18.040;2023-04-08T12:09:28;103014.75;;;10.50;32.77
50380;BME280;37474;59.468;18.040;2023-04-08T12:11:58;103019.00;;;10.55;34.94
50380;BME280;37474;59.468;18.040;2023-04-08T12:14:28;103020.25;;;11.35;33.12
50380;BME280;37474;59.468;18.040;2023-04-08T12:16:56;103010.75;;;11.34;32.31
50380;BME280;37474;59.468;18.040;2023-04-08T12:19:26;103014.13;;;11.39;33.09
50380;BME280;37474;59.468;18.040;2023-04-08T12:21:56;103008.44;;;11.19;34.09
50380;BME280;37474;59.468;18.040;2023-04-08T12:24:25;103016.00;;;11.76;32.88
50380;BME280;37474;59.468;18.040;2023-04-08T12:26:54;103011.06;;;11.63;33.85
50380;BME280;37474;59.468;18.040;2023-04-08T12:29:23;103010.94;;;11.70;33.75
50380;BME280;37474;59.468;18.040;2023-04-08T12:31:51;103015.16;;;11.75;32.14
50380;BME280;37474;59.468;18.040;2023-04-08T12:34:20;103010.94;;;11.70;33.90
50380;BME280;37474;59.468;18.040;2023-04-08T12:36:48;103003.00;;;11.31;32.38
50380;BME280;37474;59.468;18.040;2023-04-08T12:39:16;103002.00;;;11.40;32.73
50380;BME280;37474;59.468;18.040;2023-04-08T12:41:47;103005.75;;;11.23;35.40
50380;BME280;37474;59.468;18.040;2023-04-08T12:44:17;102965.97;;;11.21;31.85
50380;BME280;37474;59.468;18.040;2023-04-08T12:46:45;102996.00;;;11.36;36.92
50380;BME280;37474;59.468;18.040;2023-04-08T12:49:14;102994.94;;;11.00;35.05
50380;BME280;37474;59.468;18.040;2023-04-08T12:51:44;102990.41;;;11.11;35.27
50380;BME280;37474;59.468;18.040;2023-04-08T12:54:12;102989.78;;;11.45;33.53
50380;BME280;37474;59.468;18.040;2023-04-08T12:56:44;102997.19;;;11.18;29.79
50380;BME280;37474;59.468;18.040;2023-04-08T12:59:15;102993.97;;;11.05;29.20
50380;BME280;37474;59.468;18.040;2023-04-08T13:01:43;102991.13;;;11.64;33.52
50380;BME280;37474;59.468;18.040;2023-04-08T13:04:13;102987.59;;;12.10;32.58